Wetterdaten: Montag, 06.07.2015
Datum Zeit Auen-Temp. Temp gefhlt Luftfeuchte Luftdruck Regen Wind Richtung Richtung Taupunkt Windben
06.07.2015 00:00 24,6 C 24,5 C 50 % 1020,6 hPa 0,0 mm 9,3 km/h (2 Bft) S-SW 202 13,5 C 8,8 km/h (2 Bft)
06.07.2015 00:05 25,1 C 25,0 C 48 % 1020,6 hPa 0,0 mm 8,8 km/h (2 Bft) SW 225 13,3 C 8,0 km/h (2 Bft)
06.07.2015 00:10 25,1 C 25,5 C 47 % 1020,6 hPa 0,0 mm 6,0 km/h (2 Bft) W-SW 247 13,0 C 7,0 km/h (2 Bft)
06.07.2015 00:15 25,1 C 25,6 C 47 % 1020,7 hPa 0,0 mm 4,1 km/h (1 Bft) N-NO 22 13,0 C 0,0 km/h (0 Bft)
06.07.2015 00:20 24,4 C 25,3 C 48 % 1020,7 hPa 0,0 mm 2,6 km/h (1 Bft) S 180 12,7 C 10,1 km/h (2 Bft)
06.07.2015 00:25 24,9 C 25,3 C 48 % 1020,7 hPa 0,0 mm 2,6 km/h (1 Bft) SW 225 13,1 C 8,3 km/h (2 Bft)
06.07.2015 00:30 25,1 C 25,5 C 47 % 1020,7 hPa 0,0 mm 3,6 km/h (1 Bft) O-SO 112 13,0 C 3,4 km/h (1 Bft)
06.07.2015 00:35 24,7 C 25,5 C 47 % 1021,0 hPa 0,0 mm 2,3 km/h (1 Bft) W-SW 247 12,6 C 3,4 km/h (1 Bft)
06.07.2015 00:40 25,0 C 25,3 C 47 % 1021,0 hPa 0,0 mm 2,1 km/h (1 Bft) S-SW 202 12,9 C 4,4 km/h (1 Bft)
06.07.2015 00:45 25,1 C 25,4 C 46 % 1021,0 hPa 0,0 mm 3,4 km/h (1 Bft) W 270 12,7 C 4,7 km/h (1 Bft)
06.07.2015 00:50 25,2 C 25,5 C 46 % 1021,0 hPa 0,0 mm 4,1 km/h (1 Bft) NW 315 12,7 C 6,5 km/h (2 Bft)
06.07.2015 00:55 25,5 C 25,6 C 46 % 1021,2 hPa 0,0 mm 5,4 km/h (1 Bft) W-NW 292 13,0 C 6,2 km/h (2 Bft)
06.07.2015 01:00 25,4 C 25,6 C 47 % 1021,2 hPa 0,0 mm 4,9 km/h (1 Bft) NW 315 13,3 C 21,2 km/h (4 Bft)
06.07.2015 01:05 25,5 C 25,6 C 48 % 1021,2 hPa 0,0 mm 4,1 km/h (1 Bft) SO 135 13,7 C 11,4 km/h (2 Bft)
06.07.2015 01:10 25,4 C 25,6 C 48 % 1021,2 hPa 0,0 mm 4,7 km/h (1 Bft) NW 315 13,6 C 6,0 km/h (2 Bft)
06.07.2015 01:15 25,3 C 25,5 C 48 % 1021,4 hPa 0,0 mm 4,4 km/h (1 Bft) S-SO 157 13,5 C 2,8 km/h (1 Bft)
06.07.2015 01:20 25,0 C 25,2 C 49 % 1021,4 hPa 0,0 mm 3,9 km/h (1 Bft) S-SO 157 13,5 C 5,7 km/h (1 Bft)
06.07.2015 01:23 25,2 C 25,1 C 49 % 1021,4 hPa 0,0 mm 4,4 km/h (1 Bft) SW 225 13,7 C 9,1 km/h (2 Bft)
06.07.2015 01:24 25,2 C 25,1 C 49 % 1021,4 hPa 0,0 mm 4,4 km/h (1 Bft) SW 225 13,7 C 9,1 km/h (2 Bft)
06.07.2015 01:30 25,0 C 25,0 C 49 % 1021,4 hPa 0,0 mm 4,4 km/h (1 Bft) W 270 13,5 C 3,6 km/h (1 Bft)
06.07.2015 01:35 24,9 C 24,9 C 49 % 1021,6 hPa 0,0 mm 3,6 km/h (1 Bft) NW 315 13,4 C 5,2 km/h (1 Bft)
06.07.2015 01:40 24,7 C 24,8 C 50 % 1021,6 hPa 0,0 mm 3,9 km/h (1 Bft) W-SW 247 13,6 C 7,8 km/h (2 Bft)
06.07.2015 01:45 24,8 C 24,8 C 50 % 1021,6 hPa 0,0 mm 4,4 km/h (1 Bft) S 180 13,7 C 4,4 km/h (1 Bft)
06.07.2015 01:50 24,9 C 24,9 C 51 % 1021,6 hPa 0,0 mm 5,4 km/h (1 Bft) S-SO 157 14,1 C 10,6 km/h (2 Bft)
06.07.2015 01:55 24,8 C 24,9 C 51 % 1022,1 hPa 0,0 mm 5,4 km/h (1 Bft) SW 225 14,0 C 6,2 km/h (2 Bft)
06.07.2015 02:00 24,7 C 24,8 C 51 % 1022,1 hPa 0,0 mm 5,7 km/h (1 Bft) W-SW 247 13,9 C 3,6 km/h (1 Bft)
06.07.2015 02:05 24,6 C 24,7 C 52 % 1022,1 hPa 0,0 mm 4,4 km/h (1 Bft) S 180 14,1 C 9,8 km/h (2 Bft)
06.07.2015 02:10 24,3 C 24,6 C 52 % 1022,1 hPa 0,0 mm 3,1 km/h (1 Bft) S-SO 157 13,8 C 3,1 km/h (1 Bft)
06.07.2015 02:15 24,2 C 24,3 C 52 % 1022,3 hPa 0,0 mm 2,8 km/h (1 Bft) NW 315 13,7 C 4,7 km/h (1 Bft)
06.07.2015 02:20 24,2 C 24,2 C 53 % 1022,3 hPa 0,0 mm 2,8 km/h (1 Bft) W-SW 247 14,0 C 0,0 km/h (0 Bft)
06.07.2015 02:25 24,0 C 24,1 C 53 % 1022,3 hPa 0,0 mm 2,8 km/h (1 Bft) W-NW 292 13,8 C 5,2 km/h (1 Bft)
06.07.2015 02:30 23,9 C 23,9 C 53 % 1022,3 hPa 0,0 mm 3,1 km/h (1 Bft) S 180 13,7 C 6,0 km/h (2 Bft)
06.07.2015 02:35 24,0 C 24,0 C 54 % 1022,3 hPa 0,0 mm 3,9 km/h (1 Bft) SW 225 14,1 C 5,2 km/h (1 Bft)
06.07.2015 02:40 23,7 C 23,8 C 54 % 1022,3 hPa 0,0 mm 2,8 km/h (1 Bft) SW 225 13,8 C 0,0 km/h (0 Bft)
06.07.2015 02:45 23,3 C 23,6 C 54 % 1022,3 hPa 0,0 mm 1,6 km/h (1 Bft) SW 225 13,5 C 0,0 km/h (0 Bft)
06.07.2015 02:50 23,1 C 23,3 C 55 % 1022,3 hPa 0,0 mm 0,8 km/h (0 Bft) O-SO 112 13,6 C 0,0 km/h (0 Bft)
06.07.2015 02:55 23,2 C 23,2 C 56 % 1022,5 hPa 0,0 mm 1,3 km/h (1 Bft) W 270 13,9 C 6,0 km/h (2 Bft)
06.07.2015 03:00 23,3 C 23,3 C 56 % 1022,5 hPa 0,0 mm 2,1 km/h (1 Bft) W-SW 247 14,0 C 5,4 km/h (1 Bft)
06.07.2015 03:05 23,3 C 23,3 C 56 % 1022,5 hPa 0,0 mm 2,3 km/h (1 Bft) NW 315 14,0 C 0,0 km/h (0 Bft)
06.07.2015 03:10 23,2 C 23,2 C 56 % 1022,5 hPa 0,0 mm 2,3 km/h (1 Bft) S 180 13,9 C 4,7 km/h (1 Bft)
06.07.2015 03:15 23,4 C 23,3 C 55 % 1022,8 hPa 0,0 mm 4,1 km/h (1 Bft) W 270 13,8 C 9,1 km/h (2 Bft)
06.07.2015 03:20 22,9 C 23,2 C 57 % 1022,8 hPa 0,0 mm 5,4 km/h (1 Bft) W 270 13,9 C 3,6 km/h (1 Bft)
06.07.2015 03:25 22,7 C 22,9 C 58 % 1022,8 hPa 0,0 mm 4,4 km/h (1 Bft) W 270 14,0 C 3,4 km/h (1 Bft)
06.07.2015 03:30 22,6 C 22,6 C 58 % 1022,8 hPa 0,0 mm 2,6 km/h (1 Bft) W 270 13,9 C 5,7 km/h (1 Bft)
06.07.2015 03:35 22,7 C 22,7 C 58 % 1023,0 hPa 0,0 mm 2,6 km/h (1 Bft) W-SW 247 14,0 C 3,4 km/h (1 Bft)
06.07.2015 03:40 22,6 C 22,6 C 59 % 1023,0 hPa 0,0 mm 2,8 km/h (1 Bft) W-NW 292 14,2 C 5,2 km/h (1 Bft)
06.07.2015 03:45 22,9 C 22,8 C 59 % 1023,0 hPa 0,0 mm 3,9 km/h (1 Bft) W 270 14,5 C 5,4 km/h (1 Bft)
06.07.2015 03:50 22,6 C 22,6 C 59 % 1023,0 hPa 0,0 mm 4,1 km/h (1 Bft) W-SW 247 14,2 C 5,7 km/h (1 Bft)
06.07.2015 03:55 22,6 C 22,6 C 60 % 1023,5 hPa 0,0 mm 3,9 km/h (1 Bft) W-SW 247 14,4 C 3,6 km/h (1 Bft)
06.07.2015 04:00 22,6 C 22,6 C 61 % 1023,5 hPa 0,0 mm 4,1 km/h (1 Bft) S-SO 157 14,7 C 5,7 km/h (1 Bft)
06.07.2015 04:05 22,6 C 22,6 C 62 % 1023,5 hPa 0,0 mm 3,4 km/h (1 Bft) SW 225 14,9 C 7,0 km/h (2 Bft)
06.07.2015 04:10 22,7 C 22,7 C 62 % 1023,5 hPa 0,0 mm 3,9 km/h (1 Bft) O 90 15,0 C 13,2 km/h (3 Bft)
06.07.2015 04:15 22,8 C 22,8 C 62 % 1023,9 hPa 0,0 mm 5,4 km/h (1 Bft) S-SO 157 15,1 C 7,5 km/h (2 Bft)
06.07.2015 04:20 22,7 C 22,7 C 64 % 1023,9 hPa 0,0 mm 9,8 km/h (2 Bft) W-SW 247 15,5 C 48,4 km/h (6 Bft)
06.07.2015 04:25 18,6 C 20,3 C 78 % 1023,9 hPa 4,1 mm 14,8 km/h (3 Bft) SW 225 14,7 C 25,9 km/h (4 Bft)
06.07.2015 04:30 17,5 C 18,0 C 81 % 1023,9 hPa 5,5 mm 15,3 km/h (3 Bft) O-NO 67 14,2 C 4,9 km/h (1 Bft)
06.07.2015 04:35 16,9 C 17,2 C 82 % 1024,1 hPa 6,9 mm 8,3 km/h (2 Bft) SO 135 13,8 C 7,8 km/h (2 Bft)
06.07.2015 04:40 16,5 C 16,4 C 81 % 1024,1 hPa 0,7 mm 4,7 km/h (1 Bft) SW 225 13,2 C 3,6 km/h (1 Bft)
06.07.2015 04:45 16,5 C 16,4 C 81 % 1024,1 hPa 0,0 mm 6,0 km/h (2 Bft) S 180 13,2 C 7,3 km/h (2 Bft)
06.07.2015 04:50 16,4 C 16,2 C 81 % 1024,1 hPa 0,0 mm 6,7 km/h (2 Bft) W-SW 247 13,1 C 12,4 km/h (3 Bft)
06.07.2015 04:55 16,4 C 16,2 C 82 % 1024,6 hPa 0,0 mm 8,3 km/h (2 Bft) O-NO 67 13,3 C 6,5 km/h (2 Bft)
06.07.2015 05:00 16,4 C 16,2 C 83 % 1024,6 hPa 0,0 mm 7,5 km/h (2 Bft) SW 225 13,5 C 12,7 km/h (3 Bft)
06.07.2015 05:05 16,4 C 16,2 C 84 % 1024,6 hPa 0,0 mm 7,3 km/h (2 Bft) S 180 13,7 C 15,3 km/h (3 Bft)
06.07.2015 05:10 16,5 C 16,3 C 85 % 1024,6 hPa 0,0 mm 10,4 km/h (2 Bft) SO 135 14,0 C 10,6 km/h (2 Bft)
06.07.2015 05:15 16,7 C 16,4 C 85 % 1025,2 hPa 0,0 mm 9,6 km/h (2 Bft) S 180 14,2 C 7,5 km/h (2 Bft)
06.07.2015 05:20 16,8 C 16,6 C 85 % 1025,2 hPa 0,0 mm 9,3 km/h (2 Bft) S 180 14,3 C 18,9 km/h (3 Bft)
06.07.2015 05:25 16,9 C 16,6 C 86 % 1025,2 hPa 0,0 mm 9,1 km/h (2 Bft) SW 225 14,5 C 7,8 km/h (2 Bft)
06.07.2015 05:30 16,8 C 16,6 C 85 % 1025,2 hPa 1,4 mm 7,0 km/h (2 Bft) S 180 14,3 C 9,3 km/h (2 Bft)
06.07.2015 05:35 16,7 C 16,5 C 86 % 1025,8 hPa 1,4 mm 5,7 km/h (1 Bft) S 180 14,3 C 4,9 km/h (1 Bft)
06.07.2015 05:40 16,7 C 16,5 C 86 % 1025,8 hPa 0,0 mm 5,2 km/h (1 Bft) S 180 14,3 C 3,6 km/h (1 Bft)
06.07.2015 05:45 16,6 C 16,5 C 86 % 1025,8 hPa 0,0 mm 3,6 km/h (1 Bft) S-SO 157 14,2 C 5,7 km/h (1 Bft)
06.07.2015 05:50 16,6 C 16,5 C 87 % 1025,8 hPa 0,0 mm 2,1 km/h (1 Bft) O-SO 112 14,4 C 0,0 km/h (0 Bft)
06.07.2015 05:55 16,5 C 16,4 C 88 % 1025,3 hPa 0,0 mm 1,0 km/h (0 Bft) O 90 14,5 C 0,0 km/h (0 Bft)
06.07.2015 06:00 16,5 C 16,4 C 88 % 1025,3 hPa 0,0 mm 0,0 km/h (0 Bft) O 90 14,5 C 0,0 km/h (0 Bft)
06.07.2015 06:05 16,5 C 16,4 C 88 % 1025,3 hPa 0,0 mm 0,0 km/h (0 Bft) SO 135 14,5 C 0,0 km/h (0 Bft)
06.07.2015 06:10 16,5 C 16,4 C 88 % 1025,3 hPa 0,0 mm 2,6 km/h (1 Bft) S 180 14,5 C 4,4 km/h (1 Bft)
06.07.2015 06:15 16,5 C 16,4 C 88 % 1025,2 hPa 0,0 mm 2,6 km/h (1 Bft) O-SO 112 14,5 C 0,0 km/h (0 Bft)
06.07.2015 06:20 16,5 C 16,4 C 88 % 1025,2 hPa 0,0 mm 0,5 km/h (0 Bft) O-SO 112 14,5 C 0,0 km/h (0 Bft)
06.07.2015 06:25 16,5 C 16,4 C 88 % 1025,2 hPa 0,0 mm 0,0 km/h (0 Bft) SO 135 14,5 C 0,0 km/h (0 Bft)
06.07.2015 06:30 16,4 C 16,3 C 88 % 1025,2 hPa 0,0 mm 0,0 km/h (0 Bft) S-SO 157 14,4 C 0,0 km/h (0 Bft)
06.07.2015 06:35 16,4 C 16,3 C 88 % 1025,3 hPa 0,0 mm 0,0 km/h (0 Bft) SW 225 14,4 C 0,0 km/h (0 Bft)
06.07.2015 06:40 16,5 C 16,4 C 87 % 1025,3 hPa 0,0 mm 0,0 km/h (0 Bft) SW 225 14,3 C 0,0 km/h (0 Bft)
06.07.2015 06:45 16,5 C 16,4 C 88 % 1025,3 hPa 0,0 mm 0,3 km/h (0 Bft) O-NO 67 14,5 C 0,0 km/h (0 Bft)
06.07.2015 06:50 16,5 C 16,4 C 88 % 1025,3 hPa 0,0 mm 1,3 km/h (1 Bft) S-SW 202 14,5 C 7,3 km/h (2 Bft)
06.07.2015 06:55 16,5 C 16,4 C 88 % 1025,7 hPa 1,4 mm 2,3 km/h (1 Bft) O-SO 112 14,5 C 6,2 km/h (2 Bft)
06.07.2015 07:00 16,5 C 16,4 C 88 % 1025,7 hPa 3,4 mm 5,7 km/h (1 Bft) S 180 14,5 C 7,5 km/h (2 Bft)
06.07.2015 07:05 16,5 C 16,4 C 88 % 1025,7 hPa 0,0 mm 4,9 km/h (1 Bft) S-SW 202 14,5 C 0,0 km/h (0 Bft)
06.07.2015 07:10 16,7 C 16,5 C 88 % 1025,7 hPa 0,7 mm 2,6 km/h (1 Bft) S-SO 157 14,7 C 3,9 km/h (1 Bft)
06.07.2015 07:15 16,6 C 16,5 C 88 % 1025,6 hPa 0,0 mm 2,8 km/h (1 Bft) S 180 14,6 C 3,9 km/h (1 Bft)
06.07.2015 07:20 16,6 C 16,5 C 88 % 1025,6 hPa 0,0 mm 1,6 km/h (1 Bft) S-SW 202 14,6 C 0,0 km/h (0 Bft)
06.07.2015 07:23 16,6 C 16,5 C 88 % 1025,6 hPa 0,0 mm 0,8 km/h (0 Bft) S-SO 157 14,6 C 0,0 km/h (0 Bft)
06.07.2015 07:26 16,6 C 16,5 C 88 % 1025,6 hPa 0,0 mm 0,8 km/h (0 Bft) S-SO 157 14,6 C 0,0 km/h (0 Bft)
06.07.2015 07:30 16,6 C 16,5 C 88 % 1025,6 hPa 0,0 mm 0,3 km/h (0 Bft) O-SO 112 14,6 C 0,0 km/h (0 Bft)
06.07.2015 07:35 16,7 C 16,6 C 88 % 1025,6 hPa 0,7 mm 0,3 km/h (0 Bft) NW 315 14,7 C 0,0 km/h (0 Bft)
06.07.2015 07:40 16,7 C 16,6 C 88 % 1025,6 hPa 0,0 mm 0,3 km/h (0 Bft) S 180 14,7 C 0,0 km/h (0 Bft)
06.07.2015 07:45 16,8 C 16,7 C 88 % 1025,6 hPa 0,0 mm 0,0 km/h (0 Bft) N-NW 337 14,8 C 0,0 km/h (0 Bft)
06.07.2015 07:50 16,9 C 16,9 C 84 % 1025,6 hPa 0,0 mm 0,0 km/h (0 Bft) NO 45 14,2 C 0,0 km/h (0 Bft)
06.07.2015 07:55 17,0 C 17,1 C 84 % 1025,4 hPa 0,0 mm 0,8 km/h (0 Bft) NW 315 14,3 C 4,4 km/h (1 Bft)
06.07.2015 08:00 17,1 C 17,1 C 84 % 1025,4 hPa 0,0 mm 0,8 km/h (0 Bft) SW 225 14,4 C 0,0 km/h (0 Bft)
06.07.2015 08:05 17,1 C 17,1 C 84 % 1025,4 hPa 0,0 mm 0,3 km/h (0 Bft) SO 135 14,4 C 0,0 km/h (0 Bft)
06.07.2015 08:10 17,2 C 17,2 C 84 % 1025,4 hPa 0,0 mm 0,0 km/h (0 Bft) N 360 14,5 C 0,0 km/h (0 Bft)
06.07.2015 08:15 17,2 C 17,4 C 84 % 1025,5 hPa 0,0 mm 0,0 km/h (0 Bft) W-NW 292 14,5 C 3,9 km/h (1 Bft)
06.07.2015 08:20 17,3 C 17,4 C 84 % 1025,5 hPa 0,0 mm 0,8 km/h (0 Bft) S-SO 157 14,6 C 0,0 km/h (0 Bft)
06.07.2015 08:25 17,3 C 17,5 C 84 % 1025,5 hPa 0,0 mm 1,0 km/h (0 Bft) W-SW 247 14,6 C 3,4 km/h (1 Bft)
06.07.2015 08:30 17,3 C 17,5 C 84 % 1025,5 hPa 0,0 mm 0,3 km/h (0 Bft) SO 135 14,6 C 0,0 km/h (0 Bft)
06.07.2015 08:35 17,3 C 17,5 C 84 % 1025,4 hPa 0,0 mm 1,0 km/h (0 Bft) N-NO 22 14,6 C 0,0 km/h (0 Bft)
06.07.2015 08:40 17,4 C 17,7 C 84 % 1025,4 hPa 0,0 mm 1,3 km/h (1 Bft) S 180 14,7 C 2,6 km/h (1 Bft)
06.07.2015 08:45 17,5 C 17,7 C 84 % 1025,4 hPa 0,0 mm 0,8 km/h (0 Bft) O 90 14,8 C 0,0 km/h (0 Bft)
06.07.2015 08:50 18,0 C 18,7 C 84 % 1025,4 hPa 0,0 mm 1,3 km/h (1 Bft) O-SO 112 15,3 C 0,0 km/h (0 Bft)
06.07.2015 08:55 18,3 C 20,3 C 84 % 1025,4 hPa 0,0 mm 0,8 km/h (0 Bft) O-SO 112 15,5 C 0,0 km/h (0 Bft)
06.07.2015 09:00 19,2 C 23,7 C 84 % 1025,4 hPa 0,0 mm 0,0 km/h (0 Bft) S-SO 157 16,4 C 0,0 km/h (0 Bft)
06.07.2015 09:05 19,7 C 25,0 C 84 % 1025,4 hPa 0,0 mm 0,0 km/h (0 Bft) O-SO 112 16,9 C 0,0 km/h (0 Bft)
06.07.2015 09:10 19,9 C 26,1 C 83 % 1025,4 hPa 0,0 mm 0,3 km/h (0 Bft) O 90 16,9 C 0,0 km/h (0 Bft)
06.07.2015 09:15 19,8 C 26,1 C 82 % 1025,4 hPa 0,0 mm 0,3 km/h (0 Bft) O-SO 112 16,6 C 0,0 km/h (0 Bft)
06.07.2015 09:20 20,0 C 26,7 C 82 % 1025,4 hPa 0,0 mm 0,0 km/h (0 Bft) S 180 16,8 C 0,0 km/h (0 Bft)
06.07.2015 09:25 20,2 C 27,3 C 82 % 1025,4 hPa 0,0 mm 0,0 km/h (0 Bft) SO 135 17,0 C 0,0 km/h (0 Bft)
06.07.2015 09:30 20,7 C 28,2 C 82 % 1025,4 hPa 0,0 mm 0,0 km/h (0 Bft) W-NW 292 17,5 C 0,0 km/h (0 Bft)
06.07.2015 09:35 21,2 C 29,0 C 81 % 1025,8 hPa 0,0 mm 0,0 km/h (0 Bft) SW 225 17,8 C 0,0 km/h (0 Bft)
06.07.2015 09:40 22,0 C 29,6 C 79 % 1025,8 hPa 0,0 mm 0,0 km/h (0 Bft) NW 315 18,2 C 0,0 km/h (0 Bft)
06.07.2015 09:45 21,9 C 29,5 C 79 % 1025,8 hPa 0,0 mm 0,5 km/h (0 Bft) W-SW 247 18,1 C 0,0 km/h (0 Bft)
06.07.2015 09:50 21,4 C 28,2 C 79 % 1025,8 hPa 0,0 mm 0,5 km/h (0 Bft) O-SO 112 17,6 C 0,0 km/h (0 Bft)
06.07.2015 09:55 21,4 C 28,6 C 79 % 1025,8 hPa 0,0 mm 0,0 km/h (0 Bft) NO 45 17,6 C 0,0 km/h (0 Bft)
06.07.2015 10:00 22,3 C 30,3 C 78 % 1025,8 hPa 0,0 mm 0,5 km/h (0 Bft) S 180 18,3 C 7,8 km/h (2 Bft)
06.07.2015 10:05 22,4 C 30,4 C 77 % 1025,8 hPa 0,0 mm 1,8 km/h (1 Bft) S-SO 157 18,2 C 4,9 km/h (1 Bft)
06.07.2015 10:10 23,0 C 30,9 C 75 % 1025,8 hPa 0,0 mm 2,3 km/h (1 Bft) S 180 18,3 C 5,2 km/h (1 Bft)
06.07.2015 10:15 23,0 C 31,0 C 74 % 1025,9 hPa 0,0 mm 1,6 km/h (1 Bft) O-SO 112 18,1 C 0,0 km/h (0 Bft)
06.07.2015 10:20 23,4 C 31,6 C 75 % 1025,9 hPa 0,0 mm 1,6 km/h (1 Bft) NW 315 18,7 C 7,3 km/h (2 Bft)
06.07.2015 10:25 23,6 C 31,3 C 74 % 1025,9 hPa 0,0 mm 2,3 km/h (1 Bft) NO 45 18,7 C 4,1 km/h (1 Bft)
06.07.2015 10:30 24,1 C 31,7 C 73 % 1025,9 hPa 0,0 mm 3,1 km/h (1 Bft) N-NO 22 18,9 C 4,4 km/h (1 Bft)
06.07.2015 10:35 24,4 C 31,7 C 71 % 1026,1 hPa 0,0 mm 3,6 km/h (1 Bft) W-SW 247 18,8 C 4,1 km/h (1 Bft)
06.07.2015 10:40 24,0 C 31,7 C 69 % 1026,1 hPa 0,0 mm 3,9 km/h (1 Bft) W 270 18,0 C 9,6 km/h (2 Bft)
06.07.2015 10:45 24,0 C 31,7 C 69 % 1026,1 hPa 0,0 mm 3,6 km/h (1 Bft) W-SW 247 18,0 C 4,9 km/h (1 Bft)
06.07.2015 10:50 24,6 C 31,6 C 69 % 1026,1 hPa 0,0 mm 5,2 km/h (1 Bft) NW 315 18,5 C 10,9 km/h (2 Bft)
06.07.2015 10:55 24,8 C 31,3 C 68 % 1026,1 hPa 0,0 mm 6,0 km/h (2 Bft) W-NW 292 18,5 C 9,1 km/h (2 Bft)
06.07.2015 11:00 24,9 C 30,8 C 68 % 1026,1 hPa 0,0 mm 7,0 km/h (2 Bft) N-NW 337 18,6 C 6,0 km/h (2 Bft)
06.07.2015 11:05 24,8 C 30,6 C 67 % 1026,1 hPa 0,0 mm 6,2 km/h (2 Bft) W-NW 292 18,2 C 10,6 km/h (2 Bft)
06.07.2015 11:10 24,8 C 30,3 C 66 % 1026,1 hPa 0,0 mm 6,5 km/h (2 Bft) NW 315 18,0 C 12,4 km/h (3 Bft)
06.07.2015 11:15 24,8 C 29,9 C 66 % 1026,1 hPa 0,0 mm 7,5 km/h (2 Bft) NW 315 18,0 C 10,4 km/h (2 Bft)
06.07.2015 11:20 24,9 C 29,6 C 66 % 1026,1 hPa 0,0 mm 8,3 km/h (2 Bft) NW 315 18,1 C 7,3 km/h (2 Bft)
06.07.2015 11:25 25,0 C 30,2 C 65 % 1026,1 hPa 0,0 mm 6,7 km/h (2 Bft) NW 315 17,9 C 11,4 km/h (2 Bft)
06.07.2015 11:30 24,9 C 30,3 C 65 % 1026,1 hPa 0,0 mm 5,7 km/h (1 Bft) O-SO 112 17,9 C 4,7 km/h (1 Bft)
06.07.2015 11:35 24,6 C 30,0 C 65 % 1026,1 hPa 0,0 mm 6,0 km/h (2 Bft) W-NW 292 17,6 C 10,9 km/h (2 Bft)
06.07.2015 11:40 24,6 C 30,6 C 65 % 1026,1 hPa 0,0 mm 3,4 km/h (1 Bft) S-SO 157 17,6 C 3,9 km/h (1 Bft)
06.07.2015 11:45 24,9 C 31,0 C 65 % 1026,1 hPa 0,0 mm 3,9 km/h (1 Bft) SO 135 17,9 C 4,1 km/h (1 Bft)
06.07.2015 11:50 25,1 C 31,5 C 64 % 1026,1 hPa 0,0 mm 3,4 km/h (1 Bft) NW 315 17,8 C 11,1 km/h (2 Bft)
06.07.2015 11:55 25,5 C 32,0 C 65 % 1026,1 hPa 0,0 mm 3,6 km/h (1 Bft) W-NW 292 18,4 C 8,8 km/h (2 Bft)
06.07.2015 12:00 25,5 C 32,0 C 65 % 1026,1 hPa 0,0 mm 4,4 km/h (1 Bft) S 180 18,4 C 5,2 km/h (1 Bft)
06.07.2015 12:05 25,4 C 31,7 C 65 % 1026,1 hPa 0,0 mm 3,9 km/h (1 Bft) S-SO 157 18,3 C 6,2 km/h (2 Bft)
06.07.2015 12:10 25,0 C 30,5 C 64 % 1026,1 hPa 0,0 mm 4,1 km/h (1 Bft) W 270 17,7 C 6,5 km/h (2 Bft)
06.07.2015 12:15 25,1 C 30,2 C 63 % 1026,0 hPa 0,0 mm 3,4 km/h (1 Bft) W-SW 247 17,5 C 0,0 km/h (0 Bft)
06.07.2015 12:20 25,2 C 30,3 C 63 % 1026,0 hPa 0,0 mm 2,3 km/h (1 Bft) NW 315 17,6 C 4,9 km/h (1 Bft)
06.07.2015 12:25 25,6 C 30,8 C 64 % 1026,0 hPa 0,0 mm 3,6 km/h (1 Bft) W 270 18,3 C 9,3 km/h (2 Bft)
06.07.2015 12:30 25,5 C 30,5 C 64 % 1026,0 hPa 0,0 mm 2,6 km/h (1 Bft) W-NW 292 18,2 C 0,0 km/h (0 Bft)
06.07.2015 12:35 26,1 C 31,7 C 62 % 1025,9 hPa 0,0 mm 1,6 km/h (1 Bft) W-SW 247 18,2 C 0,0 km/h (0 Bft)
06.07.2015 12:40 25,8 C 32,0 C 63 % 1025,9 hPa 0,0 mm 3,9 km/h (1 Bft) N-NO 22 18,2 C 8,8 km/h (2 Bft)
06.07.2015 12:45 25,7 C 31,5 C 64 % 1025,9 hPa 0,0 mm 4,7 km/h (1 Bft) O-NO 67 18,4 C 0,0 km/h (0 Bft)
06.07.2015 12:50 26,0 C 32,2 C 61 % 1025,9 hPa 0,0 mm 4,7 km/h (1 Bft) N-NO 22 17,9 C 11,4 km/h (2 Bft)
06.07.2015 12:55 26,1 C 32,3 C 62 % 1025,8 hPa 0,0 mm 3,9 km/h (1 Bft) S-SW 202 18,2 C 0,0 km/h (0 Bft)
06.07.2015 13:00 26,3 C 32,8 C 61 % 1025,8 hPa 0,0 mm 3,4 km/h (1 Bft) NW 315 18,2 C 0,0 km/h (0 Bft)
06.07.2015 13:05 26,6 C 33,4 C 61 % 1025,8 hPa 0,0 mm 2,3 km/h (1 Bft) S 180 18,4 C 5,2 km/h (1 Bft)
06.07.2015 13:10 26,5 C 32,6 C 60 % 1025,8 hPa 0,0 mm 3,9 km/h (1 Bft) N-NO 22 18,1 C 8,5 km/h (2 Bft)
06.07.2015 13:15 26,9 C 32,4 C 60 % 1025,8 hPa 0,0 mm 5,4 km/h (1 Bft) N-NO 22 18,5 C 6,0 km/h (2 Bft)
06.07.2015 13:20 26,3 C 31,2 C 60 % 1025,8 hPa 0,0 mm 4,7 km/h (1 Bft) W 270 17,9 C 9,8 km/h (2 Bft)
06.07.2015 13:25 25,9 C 30,2 C 62 % 1025,8 hPa 0,0 mm 3,6 km/h (1 Bft) W 270 18,0 C 3,1 km/h (1 Bft)
06.07.2015 13:27 25,9 C 30,2 C 62 % 1025,8 hPa 0,0 mm 3,6 km/h (1 Bft) W 270 18,0 C 3,1 km/h (1 Bft)
06.07.2015 13:30 26,1 C 30,2 C 60 % 1025,8 hPa 0,0 mm 3,4 km/h (1 Bft) S 180 17,7 C 4,4 km/h (1 Bft)
06.07.2015 13:35 26,6 C 30,3 C 60 % 1025,4 hPa 0,0 mm 2,6 km/h (1 Bft) NW 315 18,2 C 2,8 km/h (1 Bft)
06.07.2015 13:40 26,5 C 31,5 C 60 % 1025,4 hPa 0,0 mm 3,4 km/h (1 Bft) NO 45 18,1 C 7,8 km/h (2 Bft)
06.07.2015 13:45 26,5 C 31,2 C 60 % 1025,4 hPa 0,0 mm 4,7 km/h (1 Bft) W-NW 292 18,1 C 6,7 km/h (2 Bft)
06.07.2015 13:50 26,7 C 30,9 C 60 % 1025,4 hPa 0,0 mm 6,0 km/h (2 Bft) W-NW 292 18,3 C 8,3 km/h (2 Bft)
06.07.2015 13:55 26,6 C 30,8 C 59 % 1025,1 hPa 0,0 mm 4,1 km/h (1 Bft) W 270 17,9 C 3,1 km/h (1 Bft)
06.07.2015 14:00 27,5 C 32,1 C 60 % 1025,1 hPa 0,0 mm 2,6 km/h (1 Bft) N-NO 22 19,0 C 10,1 km/h (2 Bft)
06.07.2015 14:05 27,7 C 33,1 C 59 % 1025,1 hPa 0,0 mm 2,6 km/h (1 Bft) S-SO 157 18,9 C 6,2 km/h (2 Bft)
06.07.2015 14:10 27,6 C 33,2 C 59 % 1025,1 hPa 0,0 mm 4,7 km/h (1 Bft) W 270 18,8 C 5,2 km/h (1 Bft)
06.07.2015 14:15 27,6 C 33,0 C 59 % 1025,1 hPa 0,0 mm 5,2 km/h (1 Bft) O-NO 67 18,8 C 5,7 km/h (1 Bft)
06.07.2015 14:20 27,8 C 33,5 C 59 % 1025,1 hPa 0,0 mm 4,9 km/h (1 Bft) NW 315 19,0 C 4,7 km/h (1 Bft)
06.07.2015 14:25 28,1 C 33,6 C 58 % 1025,1 hPa 0,0 mm 4,7 km/h (1 Bft) NW 315 19,0 C 8,8 km/h (2 Bft)
06.07.2015 14:30 27,9 C 33,4 C 57 % 1025,1 hPa 0,0 mm 5,7 km/h (1 Bft) N-NW 337 18,6 C 7,5 km/h (2 Bft)
06.07.2015 14:35 28,0 C 33,4 C 57 % 1025,1 hPa 0,0 mm 6,5 km/h (2 Bft) W 270 18,7 C 8,8 km/h (2 Bft)
06.07.2015 14:40 28,2 C 33,2 C 57 % 1025,1 hPa 0,0 mm 6,2 km/h (2 Bft) NO 45 18,9 C 6,5 km/h (2 Bft)
06.07.2015 14:45 28,4 C 33,2 C 57 % 1025,1 hPa 0,0 mm 6,5 km/h (2 Bft) N-NO 22 19,0 C 7,0 km/h (2 Bft)
06.07.2015 14:50 27,9 C 33,1 C 56 % 1025,1 hPa 0,0 mm 7,0 km/h (2 Bft) W 270 18,3 C 12,2 km/h (2 Bft)
06.07.2015 14:55 27,9 C 33,1 C 56 % 1024,9 hPa 0,0 mm 5,7 km/h (1 Bft) N-NW 337 18,3 C 5,2 km/h (1 Bft)
06.07.2015 15:00 28,2 C 33,7 C 54 % 1024,9 hPa 0,0 mm 3,6 km/h (1 Bft) NO 45 18,0 C 2,8 km/h (1 Bft)
06.07.2015 15:05 27,9 C 33,8 C 56 % 1024,9 hPa 0,0 mm 4,1 km/h (1 Bft) W-NW 292 18,3 C 10,4 km/h (2 Bft)
06.07.2015 15:10 27,9 C 33,3 C 55 % 1024,9 hPa 0,0 mm 5,2 km/h (1 Bft) W 270 18,0 C 5,7 km/h (1 Bft)
06.07.2015 15:15 28,3 C 33,8 C 56 % 1024,9 hPa 0,0 mm 4,9 km/h (1 Bft) W-SW 247 18,7 C 10,9 km/h (2 Bft)
06.07.2015 15:20 28,6 C 33,3 C 55 % 1024,9 hPa 0,0 mm 5,4 km/h (1 Bft) N 360 18,7 C 8,3 km/h (2 Bft)
06.07.2015 15:25 28,1 C 32,9 C 56 % 1024,9 hPa 0,0 mm 6,2 km/h (2 Bft) NO 45 18,5 C 6,0 km/h (2 Bft)
06.07.2015 15:30 27,9 C 32,7 C 55 % 1024,9 hPa 0,0 mm 3,9 km/h (1 Bft) S-SO 157 18,0 C 2,6 km/h (1 Bft)
06.07.2015 15:35 28,4 C 33,7 C 55 % 1024,7 hPa 0,0 mm 4,4 km/h (1 Bft) NW 315 18,5 C 13,5 km/h (3 Bft)
06.07.2015 15:40 28,5 C 33,7 C 55 % 1024,7 hPa 0,0 mm 6,0 km/h (2 Bft) NW 315 18,6 C 10,1 km/h (2 Bft)
06.07.2015 15:45 28,4 C 33,4 C 55 % 1024,7 hPa 0,0 mm 7,5 km/h (2 Bft) W 270 18,5 C 9,6 km/h (2 Bft)
06.07.2015 15:50 28,3 C 33,4 C 54 % 1024,7 hPa 0,0 mm 6,2 km/h (2 Bft) N-NW 337 18,1 C 4,7 km/h (1 Bft)
06.07.2015 15:55 28,5 C 34,2 C 55 % 1024,6 hPa 0,0 mm 4,1 km/h (1 Bft) NW 315 18,6 C 3,4 km/h (1 Bft)
06.07.2015 16:00 28,5 C 34,1 C 55 % 1024,6 hPa 0,0 mm 4,1 km/h (1 Bft) W 270 18,6 C 10,1 km/h (2 Bft)
06.07.2015 16:05 27,9 C 32,8 C 55 % 1024,6 hPa 0,0 mm 6,2 km/h (2 Bft) W-NW 292 18,0 C 9,8 km/h (2 Bft)
06.07.2015 16:10 27,4 C 31,0 C 56 % 1024,6 hPa 0,0 mm 5,4 km/h (1 Bft) N-NO 22 17,8 C 10,4 km/h (2 Bft)
06.07.2015 16:15 27,2 C 30,4 C 56 % 1024,6 hPa 0,0 mm 4,1 km/h (1 Bft) NO 45 17,6 C 3,4 km/h (1 Bft)
06.07.2015 16:20 26,8 C 29,7 C 58 % 1024,6 hPa 0,0 mm 4,9 km/h (1 Bft) W-NW 292 17,8 C 8,5 km/h (2 Bft)
06.07.2015 16:25 26,7 C 29,1 C 58 % 1024,6 hPa 0,0 mm 5,2 km/h (1 Bft) N-NW 337 17,7 C 9,1 km/h (2 Bft)
06.07.2015 16:30 26,6 C 29,3 C 58 % 1024,6 hPa 0,0 mm 6,0 km/h (2 Bft) W-SW 247 17,6 C 2,6 km/h (1 Bft)
06.07.2015 16:35 26,5 C 29,3 C 58 % 1024,5 hPa 0,0 mm 4,9 km/h (1 Bft) N-NW 337 17,5 C 6,7 km/h (2 Bft)
06.07.2015 16:40 26,4 C 29,3 C 58 % 1024,5 hPa 0,0 mm 3,4 km/h (1 Bft) W 270 17,5 C 0,0 km/h (0 Bft)
06.07.2015 16:45 26,5 C 29,5 C 58 % 1024,5 hPa 0,0 mm 2,3 km/h (1 Bft) W-SW 247 17,5 C 3,6 km/h (1 Bft)
06.07.2015 16:50 26,8 C 31,7 C 58 % 1024,5 hPa 0,0 mm 1,8 km/h (1 Bft) W-NW 292 17,8 C 7,0 km/h (2 Bft)
06.07.2015 16:55 26,8 C 32,0 C 58 % 1024,4 hPa 0,0 mm 3,1 km/h (1 Bft) W-NW 292 17,8 C 5,4 km/h (1 Bft)
06.07.2015 17:00 26,9 C 32,0 C 59 % 1024,4 hPa 0,0 mm 4,9 km/h (1 Bft) N-NW 337 18,2 C 13,7 km/h (3 Bft)
06.07.2015 17:05 26,9 C 31,9 C 59 % 1024,4 hPa 0,0 mm 5,4 km/h (1 Bft) NW 315 18,2 C 0,0 km/h (0 Bft)
06.07.2015 17:10 26,9 C 31,2 C 59 % 1024,4 hPa 0,0 mm 4,9 km/h (1 Bft) NW 315 18,2 C 3,6 km/h (1 Bft)
06.07.2015 17:15 26,7 C 30,3 C 60 % 1023,9 hPa 0,0 mm 4,4 km/h (1 Bft) N-NO 22 18,3 C 5,7 km/h (1 Bft)
06.07.2015 17:20 26,5 C 29,1 C 60 % 1023,9 hPa 0,0 mm 5,2 km/h (1 Bft) O-NO 67 18,1 C 3,1 km/h (1 Bft)
06.07.2015 17:25 26,5 C 29,0 C 61 % 1023,9 hPa 0,0 mm 3,6 km/h (1 Bft) NO 45 18,4 C 0,0 km/h (0 Bft)
06.07.2015 17:30 26,5 C 29,3 C 61 % 1023,9 hPa 0,0 mm 2,1 km/h (1 Bft) O-NO 67 18,4 C 8,3 km/h (2 Bft)
06.07.2015 17:35 26,5 C 29,3 C 61 % 1024,1 hPa 0,0 mm 3,9 km/h (1 Bft) N-NO 22 18,4 C 8,8 km/h (2 Bft)
06.07.2015 17:40 26,3 C 28,8 C 61 % 1024,1 hPa 0,0 mm 6,5 km/h (2 Bft) O-SO 112 18,2 C 10,6 km/h (2 Bft)
06.07.2015 17:45 26,1 C 28,4 C 62 % 1024,1 hPa 0,0 mm 6,5 km/h (2 Bft) NO 45 18,2 C 4,1 km/h (1 Bft)
06.07.2015 17:50 25,9 C 27,8 C 65 % 1024,1 hPa 0,0 mm 6,5 km/h (2 Bft) N-NO 22 18,8 C 5,7 km/h (1 Bft)
06.07.2015 17:55 25,8 C 27,6 C 65 % 1023,8 hPa 0,0 mm 6,5 km/h (2 Bft) O-NO 67 18,7 C 9,1 km/h (2 Bft)
06.07.2015 18:00 25,7 C 27,1 C 65 % 1023,8 hPa 0,0 mm 5,7 km/h (1 Bft) N-NW 337 18,6 C 7,0 km/h (2 Bft)
06.07.2015 18:05 25,6 C 26,8 C 65 % 1023,8 hPa 0,0 mm 6,5 km/h (2 Bft) N-NO 22 18,5 C 9,3 km/h (2 Bft)
06.07.2015 18:10 25,7 C 26,8 C 65 % 1023,8 hPa 0,0 mm 6,2 km/h (2 Bft) NO 45 18,6 C 5,7 km/h (1 Bft)
06.07.2015 18:15 25,8 C 27,1 C 64 % 1023,8 hPa 0,0 mm 4,4 km/h (1 Bft) O-NO 67 18,5 C 6,0 km/h (2 Bft)
06.07.2015 18:20 25,8 C 27,1 C 64 % 1023,8 hPa 0,0 mm 4,9 km/h (1 Bft) N-NW 337 18,5 C 0,0 km/h (0 Bft)
06.07.2015 18:25 25,8 C 27,3 C 65 % 1023,8 hPa 0,0 mm 4,4 km/h (1 Bft) N-NW 337 18,7 C 6,7 km/h (2 Bft)
06.07.2015 18:30 25,8 C 27,3 C 64 % 1023,8 hPa 0,0 mm 3,9 km/h (1 Bft) N-NO 22 18,5 C 10,4 km/h (2 Bft)
06.07.2015 18:35 25,8 C 27,5 C 64 % 1023,5 hPa 0,0 mm 4,4 km/h (1 Bft) NO 45 18,5 C 6,2 km/h (2 Bft)
06.07.2015 18:40 25,8 C 28,4 C 65 % 1023,5 hPa 0,0 mm 4,4 km/h (1 Bft) NO 45 18,7 C 8,8 km/h (2 Bft)
06.07.2015 18:45 25,7 C 28,7 C 64 % 1023,5 hPa 0,0 mm 5,7 km/h (1 Bft) O 90 18,4 C 6,0 km/h (2 Bft)
06.07.2015 18:50 25,8 C 29,3 C 64 % 1023,5 hPa 0,0 mm 4,7 km/h (1 Bft) N-NO 22 18,5 C 9,1 km/h (2 Bft)
06.07.2015 18:55 25,8 C 29,3 C 64 % 1023,5 hPa 0,0 mm 4,1 km/h (1 Bft) NO 45 18,5 C 4,9 km/h (1 Bft)
06.07.2015 19:00 25,6 C 28,9 C 64 % 1023,5 hPa 0,0 mm 4,7 km/h (1 Bft) NO 45 18,3 C 4,7 km/h (1 Bft)
06.07.2015 19:05 25,6 C 28,9 C 65 % 1023,5 hPa 0,0 mm 4,4 km/h (1 Bft) N-NO 22 18,5 C 7,0 km/h (2 Bft)
06.07.2015 19:10 25,6 C 29,1 C 65 % 1023,5 hPa 0,0 mm 3,9 km/h (1 Bft) NO 45 18,5 C 2,8 km/h (1 Bft)
06.07.2015 19:15 25,5 C 29,3 C 65 % 1023,4 hPa 0,0 mm 3,1 km/h (1 Bft) O-NO 67 18,4 C 8,5 km/h (2 Bft)
06.07.2015 19:20 25,5 C 29,1 C 65 % 1023,4 hPa 0,0 mm 4,1 km/h (1 Bft) NO 45 18,4 C 9,3 km/h (2 Bft)
06.07.2015 19:25 25,5 C 28,9 C 65 % 1023,4 hPa 0,0 mm 5,4 km/h (1 Bft) N-NO 22 18,4 C 3,4 km/h (1 Bft)
06.07.2015 19:28 25,5 C 28,9 C 65 % 1023,4 hPa 0,0 mm 3,6 km/h (1 Bft) N-NO 22 18,4 C 5,4 km/h (1 Bft)
06.07.2015 19:30 25,5 C 28,9 C 65 % 1023,4 hPa 0,0 mm 3,6 km/h (1 Bft) N-NO 22 18,4 C 5,4 km/h (1 Bft)
06.07.2015 19:35 25,5 C 28,9 C 66 % 1023,2 hPa 0,0 mm 2,1 km/h (1 Bft) O-SO 112 18,7 C 0,0 km/h (0 Bft)
06.07.2015 19:40 25,3 C 28,8 C 66 % 1023,2 hPa 0,0 mm 1,0 km/h (0 Bft) O-NO 67 18,5 C 0,0 km/h (0 Bft)
06.07.2015 19:45 25,3 C 28,8 C 67 % 1023,2 hPa 0,0 mm 0,8 km/h (0 Bft) NO 45 18,7 C 0,0 km/h (0 Bft)
06.07.2015 19:50 25,3 C 28,6 C 67 % 1023,2 hPa 0,0 mm 0,3 km/h (0 Bft) N-NW 337 18,7 C 0,0 km/h (0 Bft)
06.07.2015 19:55 25,2 C 28,7 C 68 % 1023,3 hPa 0,0 mm 0,3 km/h (0 Bft) N-NO 22 18,9 C 0,0 km/h (0 Bft)
06.07.2015 20:00 24,9 C 28,4 C 68 % 1023,3 hPa 0,0 mm 0,0 km/h (0 Bft) N-NO 22 18,6 C 0,0 km/h (0 Bft)
06.07.2015 20:05 24,7 C 28,1 C 69 % 1023,3 hPa 0,0 mm 0,3 km/h (0 Bft) SO 135 18,6 C 0,0 km/h (0 Bft)
06.07.2015 20:10 24,6 C 27,6 C 69 % 1023,3 hPa 0,0 mm 0,5 km/h (0 Bft) NO 45 18,5 C 0,0 km/h (0 Bft)
06.07.2015 20:15 24,4 C 27,3 C 69 % 1023,1 hPa 0,0 mm 0,3 km/h (0 Bft) O 90 18,3 C 0,0 km/h (0 Bft)
06.07.2015 20:20 24,3 C 26,8 C 69 % 1023,1 hPa 0,0 mm 0,0 km/h (0 Bft) SO 135 18,2 C 0,0 km/h (0 Bft)
06.07.2015 20:25 24,1 C 26,4 C 69 % 1023,1 hPa 0,0 mm 0,0 km/h (0 Bft) O-SO 112 18,0 C 0,0 km/h (0 Bft)
06.07.2015 20:30 23,9 C 26,0 C 70 % 1023,1 hPa 0,0 mm 0,0 km/h (0 Bft) S-SO 157 18,1 C 0,0 km/h (0 Bft)
06.07.2015 20:35 23,8 C 25,7 C 71 % 1022,9 hPa 0,0 mm 0,0 km/h (0 Bft) SO 135 18,2 C 0,0 km/h (0 Bft)
06.07.2015 20:40 23,5 C 25,1 C 72 % 1022,9 hPa 0,0 mm 0,0 km/h (0 Bft) SO 135 18,2 C 0,0 km/h (0 Bft)
06.07.2015 20:45 23,3 C 24,9 C 72 % 1022,9 hPa 0,0 mm 0,0 km/h (0 Bft) O-SO 112 18,0 C 0,0 km/h (0 Bft)
06.07.2015 20:50 23,1 C 24,3 C 73 % 1022,9 hPa 0,0 mm 0,0 km/h (0 Bft) S-SO 157 18,0 C 0,0 km/h (0 Bft)
06.07.2015 20:55 23,0 C 24,0 C 74 % 1022,9 hPa 0,0 mm 0,0 km/h (0 Bft) S-SO 157 18,1 C 2,6 km/h (1 Bft)
06.07.2015 21:00 22,7 C 23,5 C 76 % 1022,9 hPa 0,0 mm 0,3 km/h (0 Bft) S-SO 157 18,2 C 0,0 km/h (0 Bft)
06.07.2015 21:05 22,6 C 23,2 C 76 % 1022,9 hPa 0,0 mm 0,3 km/h (0 Bft) SO 135 18,1 C 0,0 km/h (0 Bft)
06.07.2015 21:10 22,3 C 22,6 C 77 % 1022,9 hPa 0,0 mm 0,0 km/h (0 Bft) SO 135 18,1 C 0,0 km/h (0 Bft)
06.07.2015 21:15 22,2 C 22,3 C 77 % 1022,8 hPa 0,0 mm 0,0 km/h (0 Bft) S-SO 157 18,0 C 0,0 km/h (0 Bft)
06.07.2015 21:20 22,0 C 22,0 C 78 % 1022,8 hPa 0,0 mm 0,0 km/h (0 Bft) S-SO 157 18,0 C 0,0 km/h (0 Bft)
06.07.2015 21:25 21,8 C 21,8 C 80 % 1022,8 hPa 0,0 mm 0,0 km/h (0 Bft) S-SO 157 18,2 C 0,0 km/h (0 Bft)
06.07.2015 21:30 21,6 C 21,6 C 82 % 1022,8 hPa 0,0 mm 0,0 km/h (0 Bft) S 180 18,4 C 0,0 km/h (0 Bft)
06.07.2015 21:35 21,5 C 21,4 C 82 % 1023,1 hPa 0,0 mm 0,8 km/h (0 Bft) SO 135 18,3 C 4,1 km/h (1 Bft)
06.07.2015 21:40 21,4 C 21,4 C 80 % 1023,1 hPa 0,0 mm 3,4 km/h (1 Bft) S-SO 157 17,8 C 5,2 km/h (1 Bft)
06.07.2015 21:45 21,4 C 21,4 C 80 % 1023,1 hPa 0,0 mm 4,4 km/h (1 Bft) S-SO 157 17,8 C 3,6 km/h (1 Bft)
06.07.2015 21:50 21,1 C 21,3 C 80 % 1023,1 hPa 0,0 mm 2,3 km/h (1 Bft) S-SO 157 17,5 C 0,0 km/h (0 Bft)
06.07.2015 21:55 20,9 C 21,1 C 81 % 1022,9 hPa 0,0 mm 1,0 km/h (0 Bft) S-SO 157 17,5 C 0,0 km/h (0 Bft)
06.07.2015 22:00 20,8 C 20,8 C 82 % 1022,9 hPa 0,0 mm 0,5 km/h (0 Bft) SO 135 17,6 C 0,0 km/h (0 Bft)
06.07.2015 22:05 20,7 C 20,7 C 83 % 1022,9 hPa 0,0 mm 0,3 km/h (0 Bft) S-SO 157 17,7 C 0,0 km/h (0 Bft)
06.07.2015 22:10 20,6 C 20,5 C 83 % 1022,9 hPa 0,0 mm 0,0 km/h (0 Bft) S-SO 157 17,6 C 2,8 km/h (1 Bft)
06.07.2015 22:15 20,6 C 20,5 C 83 % 1022,8 hPa 0,0 mm 0,3 km/h (0 Bft) S-SO 157 17,6 C 0,0 km/h (0 Bft)
06.07.2015 22:20 20,4 C 20,3 C 83 % 1022,8 hPa 0,0 mm 0,3 km/h (0 Bft) SO 135 17,4 C 0,0 km/h (0 Bft)
06.07.2015 22:25 20,3 C 20,1 C 83 % 1022,8 hPa 0,0 mm 0,0 km/h (0 Bft) SO 135 17,3 C 0,0 km/h (0 Bft)
06.07.2015 22:30 20,2 C 20,0 C 83 % 1022,8 hPa 0,0 mm 0,0 km/h (0 Bft) N 360 17,2 C 0,0 km/h (0 Bft)
06.07.2015 22:35 20,2 C 19,9 C 83 % 1022,6 hPa 0,0 mm 0,0 km/h (0 Bft) S 180 17,2 C 0,0 km/h (0 Bft)
06.07.2015 22:40 19,9 C 19,7 C 83 % 1022,6 hPa 0,0 mm 0,0 km/h (0 Bft) SO 135 16,9 C 0,0 km/h (0 Bft)
06.07.2015 22:45 19,7 C 19,5 C 83 % 1022,6 hPa 0,0 mm 0,0 km/h (0 Bft) SO 135 16,7 C 0,0 km/h (0 Bft)
06.07.2015 22:50 19,7 C 19,5 C 83 % 1022,6 hPa 0,0 mm 0,0 km/h (0 Bft) SO 135 16,7 C 0,0 km/h (0 Bft)
06.07.2015 22:55 19,5 C 19,3 C 83 % 1022,8 hPa 0,0 mm 0,0 km/h (0 Bft) SO 135 16,5 C 0,0 km/h (0 Bft)
06.07.2015 23:00 19,5 C 19,3 C 84 % 1022,8 hPa 0,0 mm 0,0 km/h (0 Bft) O-NO 67 16,7 C 0,0 km/h (0 Bft)
06.07.2015 23:05 19,5 C 19,3 C 84 % 1022,8 hPa 0,0 mm 0,0 km/h (0 Bft) O-NO 67 16,7 C 0,0 km/h (0 Bft)
06.07.2015 23:10 19,4 C 19,2 C 85 % 1022,8 hPa 0,0 mm 0,0 km/h (0 Bft) O-NO 67 16,8 C 0,0 km/h (0 Bft)
06.07.2015 23:15 19,5 C 19,2 C 85 % 1022,6 hPa 0,0 mm 0,0 km/h (0 Bft) O-NO 67 16,9 C 0,0 km/h (0 Bft)
06.07.2015 23:20 19,3 C 19,1 C 85 % 1022,6 hPa 0,0 mm 0,0 km/h (0 Bft) O-NO 67 16,7 C 0,0 km/h (0 Bft)
06.07.2015 23:25 19,3 C 19,1 C 85 % 1022,6 hPa 0,0 mm 0,0 km/h (0 Bft) O-NO 67 16,7 C 0,0 km/h (0 Bft)
06.07.2015 23:30 19,2 C 19,0 C 85 % 1022,6 hPa 0,0 mm 0,0 km/h (0 Bft) O-NO 67 16,6 C 0,0 km/h (0 Bft)
06.07.2015 23:35 19,2 C 19,0 C 85 % 1022,4 hPa 0,0 mm 0,0 km/h (0 Bft) O-NO 67 16,6 C 0,0 km/h (0 Bft)
06.07.2015 23:40 19,2 C 19,0 C 85 % 1022,4 hPa 0,0 mm 0,0 km/h (0 Bft) O 90 16,6 C 0,0 km/h (0 Bft)
06.07.2015 23:45 19,2 C 19,0 C 85 % 1022,4 hPa 0,0 mm 0,0 km/h (0 Bft) O-NO 67 16,6 C 0,0 km/h (0 Bft)
06.07.2015 23:50 19,1 C 18,9 C 85 % 1022,4 hPa 0,0 mm 0,0 km/h (0 Bft) W-NW 292 16,5 C 0,0 km/h (0 Bft)
06.07.2015 23:55 18,9 C 18,7 C 85 % 1022,3 hPa 0,0 mm 0,0 km/h (0 Bft) W-NW 292 16,3 C 0,0 km/h (0 Bft)
_ Min-Zeit 06:35 05:05 00:55 00:10 - 23:55 - - 00:35 23:55
Minimum _ 16,4 C 16,2 C 46 % 1020,6 hPa - 0,0 km/h (0 Bft) - - 12,6 C 0,0 km/h (0 Bft)
_ Max-Zeit 15:20 15:55 07:45 12:10 04:35 04:30 - - 14:45 04:20
Maximum _ 28,6 C 34,2 C 88 % 1026,1 hPa 6,9 mm 15,3 km/h
O-NO (3 Bft)
- - 19,0 C 48,4 km/h
W-SW (6 Bft)
Durchschnitt _ 22,9 C 25,3 C 69 % 1024,1 hPa #26,1 mm 3,2 km/h (1 Bft) NW - 16,5 C 4,6 km/h (1 Bft)